createdAt,value
2023-03-30T00:00:55.297Z,97167.19
2023-03-30T00:03:23.094Z,97191.66
2023-03-30T00:05:51.869Z,97197.97
2023-03-30T00:08:19.330Z,97210.59
2023-03-30T00:10:46.644Z,97210.00
2023-03-30T00:13:14.394Z,97205.19
2023-03-30T00:15:41.385Z,97190.22
2023-03-30T00:18:09.380Z,97199.72
2023-03-30T00:20:37.899Z,97182.72
2023-03-30T00:23:04.788Z,97210.53
2023-03-30T00:25:31.589Z,97224.66
2023-03-30T00:27:58.353Z,97219.56
2023-03-30T00:30:25.484Z,97238.13
2023-03-30T00:32:52.320Z,97231.28
2023-03-30T00:35:19.843Z,97230.63
2023-03-30T00:37:49.632Z,97252.88
2023-03-30T00:40:21.777Z,97242.53
2023-03-30T00:42:48.846Z,97253.31
2023-03-30T00:45:22.265Z,97252.19
2023-03-30T00:48:06.987Z,97247.78
2023-03-30T00:50:40.838Z,97234.94
2023-03-30T00:53:12.994Z,97238.47
2023-03-30T00:55:40.952Z,97237.41
2023-03-30T00:58:10.300Z,97245.50
2023-03-30T01:00:39.017Z,97259.22
2023-03-30T01:03:15.181Z,97267.06
2023-03-30T01:05:45.057Z,97252.91
2023-03-30T01:08:14.164Z,97244.44
2023-03-30T01:10:41.288Z,97242.19
2023-03-30T01:13:08.117Z,97239.75
2023-03-30T01:15:38.368Z,97232.72
2023-03-30T01:18:24.277Z,97217.34
2023-03-30T01:21:13.032Z,97228.25
2023-03-30T01:23:53.975Z,97255.72
2023-03-30T01:26:35.767Z,97264.34
2023-03-30T01:29:28.961Z,97279.66
2023-03-30T01:32:13.913Z,97278.53
2023-03-30T01:34:58.033Z,97299.31
2023-03-30T01:37:33.786Z,97307.03
2023-03-30T01:40:05.737Z,97333.47
2023-03-30T01:42:50.680Z,97332.63
2023-03-30T01:45:23.426Z,97352.06
2023-03-30T01:47:55.355Z,97358.81
2023-03-30T01:50:29.852Z,97341.31
2023-03-30T01:53:17.745Z,97356.69
2023-03-30T01:56:08.181Z,97351.69
2023-03-30T01:58:43.745Z,97373.84
2023-03-30T02:01:14.671Z,97306.25
2023-03-30T02:03:45.528Z,97205.53
2023-03-30T02:06:20.730Z,97195.53
2023-03-30T02:08:49.770Z,97146.09
2023-03-30T02:11:16.575Z,97066.94
2023-03-30T02:13:44.545Z,96969.09
2023-03-30T02:16:16.547Z,96972.22
2023-03-30T02:18:46.129Z,96934.72
2023-03-30T02:21:13.253Z,96854.09
2023-03-30T02:23:44.154Z,96796.06
2023-03-30T02:26:13.332Z,96720.44
2023-03-30T02:28:40.363Z,96716.88
2023-03-30T02:31:13.305Z,96709.75
2023-03-30T02:34:08.615Z,96733.38
2023-03-30T02:36:55.585Z,96772.28
2023-03-30T02:39:31.322Z,96753.44
2023-03-30T02:42:13.255Z,96700.06
2023-03-30T02:45:05.169Z,96641.56
2023-03-30T02:47:42.417Z,96607.06
2023-03-30T02:50:22.295Z,96560.66
2023-03-30T02:53:02.080Z,96528.59
2023-03-30T02:55:38.503Z,96545.59
2023-03-30T02:58:42.697Z,96530.41
2023-03-30T03:01:19.788Z,96475.66
2023-03-30T03:03:58.416Z,96443.81
2023-03-30T03:06:27.842Z,96415.06
2023-03-30T03:08:56.388Z,96360.97
2023-03-30T03:11:27.268Z,96347.56
2023-03-30T03:13:53.999Z,96311.81
2023-03-30T03:16:21.060Z,96239.72
2023-03-30T03:19:03.827Z,96159.03
2023-03-30T03:21:30.625Z,96189.97
2023-03-30T03:23:57.491Z,96211.97
2023-03-30T03:26:32.867Z,96229.47
2023-03-30T03:29:00.285Z,96231.66
2023-03-30T03:31:27.458Z,96233.53
2023-03-30T03:33:54.377Z,96224.06
2023-03-30T03:36:34.104Z,96221.34
2023-03-30T03:39:02.259Z,96228.00
2023-03-30T03:41:29.327Z,96228.97
2023-03-30T03:43:56.277Z,96194.63
2023-03-30T03:46:23.135Z,96188.44
2023-03-30T03:48:50.018Z,96184.88
2023-03-30T03:51:16.797Z,96208.56
2023-03-30T03:53:43.544Z,96239.72
2023-03-30T03:56:12.901Z,96303.38
2023-03-30T03:58:39.779Z,96334.53
2023-03-30T04:01:07.377Z,96322.59
2023-03-30T04:03:34.435Z,96303.47
2023-03-30T04:06:02.686Z,96315.63
2023-03-30T04:08:30.789Z,96404.16
2023-03-30T04:11:13.459Z,96460.13
2023-03-30T04:13:58.844Z,96427.47
2023-03-30T04:16:47.038Z,96405.75
2023-03-30T04:19:32.543Z,96393.88
2023-03-30T04:22:19.916Z,96376.03
2023-03-30T04:24:59.337Z,96349.34
2023-03-30T04:27:44.637Z,96315.31
2023-03-30T04:30:38.886Z,96312.91
2023-03-30T04:33:38.241Z,96321.16
2023-03-30T04:36:27.912Z,96297.13
2023-03-30T04:39:07.120Z,96301.28
2023-03-30T04:41:52.482Z,96291.88
2023-03-30T04:44:36.413Z,96309.31
2023-03-30T04:47:18.624Z,96320.56
2023-03-30T04:49:57.212Z,96325.50
2023-03-30T04:52:42.399Z,96362.19
2023-03-30T04:55:28.177Z,96386.16
2023-03-30T04:58:18.243Z,96380.31
2023-03-30T05:01:08.968Z,96391.44
2023-03-30T05:03:55.761Z,96360.44
2023-03-30T05:06:45.894Z,96379.84
2023-03-30T05:09:16.834Z,96402.91
2023-03-30T05:12:13.389Z,96391.44
2023-03-30T05:15:09.730Z,96425.66
2023-03-30T05:17:49.987Z,96444.31
2023-03-30T05:20:26.460Z,96480.34
2023-03-30T05:23:12.416Z,96471.41
2023-03-30T05:25:52.172Z,96459.72
2023-03-30T05:28:37.417Z,96455.63
2023-03-30T05:31:28.067Z,96450.28
2023-03-30T05:34:13.497Z,96451.84
2023-03-30T05:36:48.677Z,96455.22
2023-03-30T05:39:48.483Z,96506.94
2023-03-30T05:42:39.081Z,96516.94
2023-03-30T05:45:26.143Z,96522.47
2023-03-30T05:48:09.599Z,96557.25
2023-03-30T05:50:48.240Z,96521.88
2023-03-30T05:53:38.057Z,96546.59
2023-03-30T05:56:34.830Z,96568.78
2023-03-30T05:59:37.519Z,96632.63
2023-03-30T06:02:14.376Z,96633.25
2023-03-30T06:04:42.237Z,96623.97
2023-03-30T06:07:09.370Z,96644.97
2023-03-30T06:09:36.443Z,96666.03
2023-03-30T06:12:10.532Z,96666.69
2023-03-30T06:14:38.585Z,96665.72
2023-03-30T06:17:26.227Z,96671.06
2023-03-30T06:19:53.665Z,96672.63
2023-03-30T06:22:21.624Z,96675.22
2023-03-30T06:25:11.084Z,96662.94
2023-03-30T06:27:37.724Z,96656.19
2023-03-30T06:30:05.654Z,96642.97
2023-03-30T06:32:32.812Z,96625.00
2023-03-30T06:35:21.617Z,96624.81
2023-03-30T06:37:49.778Z,96606.81
2023-03-30T06:40:17.523Z,96625.34
2023-03-30T06:42:47.775Z,96642.50
2023-03-30T06:45:21.897Z,96666.19
2023-03-30T06:47:48.778Z,96657.84
2023-03-30T06:50:16.180Z,96651.06
2023-03-30T06:53:04.605Z,96666.44
2023-03-30T06:55:39.840Z,96674.88
2023-03-30T06:58:07.604Z,96672.22
2023-03-30T07:00:35.250Z,96654.19
2023-03-30T07:03:39.869Z,96641.28
2023-03-30T07:06:21.068Z,96629.44
2023-03-30T07:08:49.327Z,96617.56
2023-03-30T07:11:22.652Z,96600.66
2023-03-30T07:13:50.855Z,96598.44
2023-03-30T07:16:18.428Z,96592.88
2023-03-30T07:18:45.171Z,96592.47
2023-03-30T07:21:11.896Z,96588.41
2023-03-30T07:23:40.817Z,96585.84
2023-03-30T07:26:09.735Z,96590.13
2023-03-30T07:28:43.250Z,96595.34
2023-03-30T07:31:13.994Z,96588.16
2023-03-30T07:33:42.660Z,96575.94
2023-03-30T07:36:13.790Z,96588.72
2023-03-30T07:38:41.354Z,96599.72
2023-03-30T07:41:14.352Z,96671.78
2023-03-30T07:43:42.722Z,96759.53
2023-03-30T07:46:12.122Z,96715.59
2023-03-30T07:48:42.686Z,96725.06
2023-03-30T07:51:12.483Z,96728.44
2023-03-30T07:53:48.746Z,96715.94
2023-03-30T07:56:23.562Z,96743.53
2023-03-30T07:58:53.779Z,96776.38
2023-03-30T08:01:24.572Z,96750.09
2023-03-30T08:04:22.868Z,96747.47
2023-03-30T08:06:52.885Z,96737.06
2023-03-30T08:09:19.991Z,96738.00
2023-03-30T08:11:47.005Z,96733.88
2023-03-30T08:14:13.680Z,96774.22
2023-03-30T08:16:40.430Z,96807.84
2023-03-30T08:19:07.296Z,96800.38
2023-03-30T08:21:34.024Z,96832.66
2023-03-30T08:24:01.348Z,96853.16
2023-03-30T08:26:28.784Z,96847.03
2023-03-30T08:28:55.505Z,96829.63
2023-03-30T08:31:22.497Z,96835.84
2023-03-30T08:33:49.918Z,96818.06
2023-03-30T08:36:16.703Z,96823.94
2023-03-30T08:38:46.404Z,96829.84
2023-03-30T08:41:21.971Z,96832.63
2023-03-30T08:43:57.750Z,96848.81
2023-03-30T08:46:25.298Z,96829.94
2023-03-30T08:48:53.751Z,96858.44
2023-03-30T08:51:32.472Z,96876.06
2023-03-30T08:54:07.340Z,96860.59
2023-03-30T08:56:54.964Z,96879.06
2023-03-30T08:59:46.071Z,96860.94
2023-03-30T09:02:21.579Z,96874.59
2023-03-30T09:05:16.593Z,96865.97
2023-03-30T09:08:08.414Z,96907.09
2023-03-30T09:10:45.387Z,96922.06
2023-03-30T09:13:20.647Z,96905.06
2023-03-30T09:15:57.486Z,96906.28
2023-03-30T09:18:32.082Z,96897.63
2023-03-30T09:21:01.522Z,96945.38
2023-03-30T09:23:31.301Z,96948.94
2023-03-30T09:26:07.392Z,96967.47
2023-03-30T09:29:03.914Z,96994.63
2023-03-30T09:31:53.982Z,97021.06
2023-03-30T09:34:28.368Z,97017.00
2023-03-30T09:36:58.400Z,96990.88
2023-03-30T09:39:27.782Z,96991.25
2023-03-30T09:42:13.405Z,96992.63
2023-03-30T09:45:07.177Z,97010.34
2023-03-30T09:47:37.318Z,97061.13
2023-03-30T09:50:16.067Z,97046.03
2023-03-30T09:52:55.958Z,97071.59
2023-03-30T09:55:22.574Z,97075.28
2023-03-30T09:57:51.214Z,97074.19
2023-03-30T10:00:29.501Z,97095.00
2023-03-30T10:03:05.238Z,97134.97
2023-03-30T10:05:34.907Z,97146.16
2023-03-30T10:08:07.380Z,97152.22
2023-03-30T10:10:36.325Z,97189.88
2023-03-30T10:13:19.655Z,97177.28
2023-03-30T10:15:51.773Z,97142.97
2023-03-30T10:18:18.415Z,97139.44
2023-03-30T10:21:15.307Z,97180.25
2023-03-30T10:23:45.052Z,97168.31
2023-03-30T10:26:20.115Z,97168.03
2023-03-30T10:29:01.270Z,97166.97
2023-03-30T10:31:28.478Z,97166.00
2023-03-30T10:33:57.954Z,97207.19
2023-03-30T10:36:29.917Z,97144.50
2023-03-30T10:39:05.150Z,97176.19
2023-03-30T10:41:32.058Z,97164.53
2023-03-30T10:44:24.022Z,97173.69
2023-03-30T10:46:53.932Z,97194.03
2023-03-30T10:49:20.605Z,97208.31
2023-03-30T10:51:47.689Z,97241.09
2023-03-30T10:54:23.402Z,97257.19
2023-03-30T10:57:17.694Z,97248.56
2023-03-30T11:00:00.196Z,97240.97
2023-03-30T11:02:30.202Z,97277.47
2023-03-30T11:05:31.947Z,97247.91
2023-03-30T11:08:02.198Z,97248.19
2023-03-30T11:10:57.048Z,97248.09
2023-03-30T11:13:38.520Z,97256.59
2023-03-30T11:16:40.758Z,97292.69
2023-03-30T11:19:16.554Z,97233.94
2023-03-30T11:21:50.481Z,97158.47
2023-03-30T11:24:17.063Z,97109.72
2023-03-30T11:27:03.772Z,97087.50
2023-03-30T11:29:33.489Z,97074.78
2023-03-30T11:32:22.262Z,97090.06
2023-03-30T11:35:17.403Z,97086.81
2023-03-30T11:37:57.509Z,97083.50
2023-03-30T11:40:32.575Z,97081.31
2023-03-30T11:42:59.392Z,97085.19
2023-03-30T11:45:48.577Z,97080.81
2023-03-30T11:48:38.386Z,97058.75
2023-03-30T11:51:20.108Z,96979.44
2023-03-30T11:54:05.144Z,96923.00
2023-03-30T11:56:43.167Z,96881.19
2023-03-30T11:59:17.304Z,96870.94
2023-03-30T12:01:43.961Z,96846.97
2023-03-30T12:04:14.867Z,96834.03
2023-03-30T12:07:09.949Z,96815.78
2023-03-30T12:09:45.828Z,96751.47
2023-03-30T12:12:18.508Z,96678.81
2023-03-30T12:15:10.699Z,96658.66
2023-03-30T12:18:03.226Z,96656.00
2023-03-30T12:20:55.996Z,96658.34
2023-03-30T12:23:28.368Z,96670.72
2023-03-30T12:26:19.245Z,96640.47
2023-03-30T12:29:26.146Z,96679.13
2023-03-30T12:32:03.580Z,96696.56
2023-03-30T12:34:40.931Z,96690.03
2023-03-30T12:37:13.333Z,96715.09
2023-03-30T12:39:51.705Z,96697.41
2023-03-30T12:42:34.831Z,96631.38
2023-03-30T12:45:23.174Z,96556.34
2023-03-30T12:47:57.054Z,96528.13
2023-03-30T12:50:23.968Z,96487.53
2023-03-30T12:53:17.924Z,96482.47
2023-03-30T12:56:11.501Z,96492.00
2023-03-30T12:58:40.862Z,96481.19
2023-03-30T13:01:33.066Z,96575.59
2023-03-30T13:04:02.504Z,96615.13
2023-03-30T13:06:47.195Z,96683.78
2023-03-30T13:09:32.045Z,96690.16
2023-03-30T13:11:59.165Z,96625.91
2023-03-30T13:14:32.149Z,96680.16
2023-03-30T13:16:58.809Z,96695.53
2023-03-30T13:19:33.000Z,96753.69
2023-03-30T13:22:03.378Z,96849.22
2023-03-30T13:24:33.204Z,96807.94
2023-03-30T13:27:14.922Z,96833.44
2023-03-30T13:29:48.712Z,96886.06
2023-03-30T13:32:20.514Z,96990.03
2023-03-30T13:35:07.821Z,96970.66
2023-03-30T13:37:43.689Z,96952.47
2023-03-30T13:40:40.251Z,96974.69
2023-03-30T13:43:23.182Z,96960.56
2023-03-30T13:45:50.088Z,96997.22
2023-03-30T13:48:44.948Z,97014.81
2023-03-30T13:51:18.861Z,97035.88
2023-03-30T13:54:15.145Z,97029.78
2023-03-30T13:56:49.153Z,97029.84
2023-03-30T13:59:21.528Z,97086.25
2023-03-30T14:01:54.900Z,97092.09
2023-03-30T14:04:22.270Z,97083.22
2023-03-30T14:06:50.452Z,97068.84
2023-03-30T14:09:25.348Z,97083.06
2023-03-30T14:12:01.103Z,97108.06
2023-03-30T14:14:40.135Z,97132.50
2023-03-30T14:17:22.213Z,97108.34
2023-03-30T14:20:30.879Z,97138.03
2023-03-30T14:23:00.619Z,97133.75
2023-03-30T14:25:35.619Z,97130.31
2023-03-30T14:28:13.398Z,97113.75
2023-03-30T14:30:59.374Z,97152.13
2023-03-30T14:33:26.771Z,97129.66
2023-03-30T14:35:59.244Z,97139.22
2023-03-30T14:38:34.874Z,97171.22
2023-03-30T14:41:07.098Z,97205.28
2023-03-30T14:43:35.644Z,97174.28
2023-03-30T14:46:05.766Z,97165.47
2023-03-30T14:48:39.014Z,97170.81
2023-03-30T14:51:21.524Z,97166.56
2023-03-30T14:53:48.689Z,97162.28
2023-03-30T14:56:18.055Z,97201.72
2023-03-30T14:58:46.509Z,97188.41
2023-03-30T15:01:18.536Z,97200.75
2023-03-30T15:03:47.545Z,97183.09
2023-03-30T15:06:24.533Z,97162.59
2023-03-30T15:08:52.305Z,97189.94
2023-03-30T15:11:26.493Z,97184.47
2023-03-30T15:13:57.972Z,97201.97
2023-03-30T15:16:30.106Z,97209.81
2023-03-30T15:19:04.844Z,97217.13
2023-03-30T15:21:35.432Z,97210.16
2023-03-30T15:24:06.777Z,97270.19
2023-03-30T15:26:34.361Z,97250.16
2023-03-30T15:29:01.559Z,97272.41
2023-03-30T15:31:28.830Z,97244.66
2023-03-30T15:33:57.823Z,97229.13
2023-03-30T15:36:46.564Z,97245.56
2023-03-30T15:39:22.501Z,97243.25
2023-03-30T15:42:01.853Z,97244.13
2023-03-30T15:44:29.149Z,97250.38
2023-03-30T15:46:57.761Z,97255.72
2023-03-30T15:49:45.450Z,97239.22
2023-03-30T15:52:23.024Z,97205.19
2023-03-30T15:54:57.215Z,97230.63
2023-03-30T15:57:29.849Z,97210.78
2023-03-30T16:00:03.377Z,97252.25
2023-03-30T16:02:57.942Z,97246.09
2023-03-30T16:05:34.137Z,97253.75
2023-03-30T16:08:05.431Z,97247.38
2023-03-30T16:10:33.784Z,97251.63
2023-03-30T16:13:01.408Z,97246.63
2023-03-30T16:15:33.120Z,97232.06
2023-03-30T16:17:59.909Z,97231.22
2023-03-30T16:20:30.668Z,97224.91
2023-03-30T16:22:57.824Z,97233.09
2023-03-30T16:25:41.758Z,97231.72
2023-03-30T16:28:15.566Z,97229.16
2023-03-30T16:30:44.720Z,97233.09
2023-03-30T16:33:11.844Z,97220.19
2023-03-30T16:35:38.811Z,97225.97
2023-03-30T16:38:05.896Z,97224.81
2023-03-30T16:40:44.384Z,97208.53
2023-03-30T16:43:11.816Z,97200.16
2023-03-30T16:45:38.945Z,97229.66
2023-03-30T16:48:05.993Z,97238.94
2023-03-30T16:51:08.320Z,97228.66
2023-03-30T16:53:35.073Z,97233.38
2023-03-30T16:56:01.833Z,97222.53
2023-03-30T16:58:28.647Z,97205.22
2023-03-30T17:01:03.295Z,97203.94
2023-03-30T17:03:31.843Z,97205.63
2023-03-30T17:05:58.918Z,97219.75
2023-03-30T17:08:28.466Z,97191.56
2023-03-30T17:11:00.548Z,97189.56
2023-03-30T17:13:28.594Z,97190.44
2023-03-30T17:15:56.014Z,97184.06
2023-03-30T17:18:24.158Z,97166.06
2023-03-30T17:20:53.291Z,97162.09
2023-03-30T17:23:21.773Z,97163.34
2023-03-30T17:25:49.649Z,97157.91
2023-03-30T17:28:38.812Z,97148.34
2023-03-30T17:31:12.682Z,97152.81
2023-03-30T17:33:39.691Z,97147.19
2023-03-30T17:36:14.230Z,97145.97
2023-03-30T17:38:43.428Z,97160.31
2023-03-30T17:41:15.669Z,97153.69
2023-03-30T17:43:43.786Z,97140.00
2023-03-30T17:46:15.915Z,97136.72
2023-03-30T17:48:42.871Z,97110.28
2023-03-30T17:51:10.257Z,97059.69
2023-03-30T17:53:37.352Z,96989.47
2023-03-30T17:56:04.475Z,96984.22
2023-03-30T17:58:34.387Z,96939.88
2023-03-30T18:01:03.593Z,96942.81
2023-03-30T18:03:30.637Z,96930.19
2023-03-30T18:05:59.596Z,96957.34
2023-03-30T18:08:27.311Z,96949.66
2023-03-30T18:10:56.001Z,96965.06
2023-03-30T18:13:25.428Z,96963.25
2023-03-30T18:15:54.993Z,96975.63
2023-03-30T18:18:27.120Z,96987.16
2023-03-30T18:21:05.381Z,96978.56
2023-03-30T18:23:34.533Z,97006.31
2023-03-30T18:26:02.411Z,96995.13
2023-03-30T18:28:31.580Z,96997.41
2023-03-30T18:31:01.869Z,97033.38
2023-03-30T18:33:28.933Z,97023.16
2023-03-30T18:36:05.271Z,97010.69
2023-03-30T18:38:33.508Z,96993.06
2023-03-30T18:41:01.547Z,97016.31
2023-03-30T18:43:28.427Z,97017.84
2023-03-30T18:46:00.829Z,97038.16
2023-03-30T18:48:28.733Z,97015.38
2023-03-30T18:50:55.791Z,97013.63
2023-03-30T18:53:24.739Z,97014.28
2023-03-30T18:55:53.809Z,97012.97
2023-03-30T18:58:23.298Z,97005.78
2023-03-30T19:00:51.857Z,96992.53
2023-03-30T19:03:20.195Z,96988.63
2023-03-30T19:05:47.707Z,96980.81
2023-03-30T19:08:23.585Z,96980.59
2023-03-30T19:10:52.904Z,96967.66
2023-03-30T19:13:20.854Z,96945.84
2023-03-30T19:15:49.711Z,96947.81
2023-03-30T19:18:18.088Z,96938.69
2023-03-30T19:20:45.398Z,96924.00
2023-03-30T19:23:14.151Z,96924.00
2023-03-30T19:25:41.409Z,96939.00
2023-03-30T19:28:08.704Z,96926.31
2023-03-30T19:30:39.277Z,96922.81
2023-03-30T19:33:09.811Z,96917.28
2023-03-30T19:35:36.991Z,96930.13
2023-03-30T19:38:04.109Z,96945.19
2023-03-30T19:40:30.851Z,96926.06
2023-03-30T19:42:57.470Z,96919.25
2023-03-30T19:45:24.515Z,96905.78
2023-03-30T19:47:52.320Z,96903.19
2023-03-30T19:50:20.678Z,96901.31
2023-03-30T19:52:50.281Z,96896.75
2023-03-30T19:55:19.097Z,96888.19
2023-03-30T19:57:46.477Z,96884.50
2023-03-30T20:00:16.062Z,96885.03
2023-03-30T20:02:45.669Z,96861.59
2023-03-30T20:05:13.262Z,96860.88
2023-03-30T20:07:41.151Z,96860.94
2023-03-30T20:10:10.496Z,96846.72
2023-03-30T20:12:38.004Z,96842.19
2023-03-30T20:15:06.666Z,96827.97
2023-03-30T20:17:34.411Z,96830.47
2023-03-30T20:20:07.245Z,96819.63
2023-03-30T20:22:36.695Z,96823.06
2023-03-30T20:25:06.703Z,96835.44
2023-03-30T20:27:34.067Z,96824.50
2023-03-30T20:30:01.281Z,96808.44
2023-03-30T20:32:28.096Z,96816.34
2023-03-30T20:34:54.841Z,96827.97
2023-03-30T20:37:21.595Z,96818.53
2023-03-30T20:39:50.067Z,96825.66
2023-03-30T20:42:18.333Z,96817.31
2023-03-30T20:44:50.459Z,96821.38
2023-03-30T20:47:18.073Z,96819.31
2023-03-30T20:49:46.482Z,96827.41
2023-03-30T20:52:13.607Z,96818.53
2023-03-30T20:54:41.309Z,96836.88
2023-03-30T20:57:08.113Z,96834.28
2023-03-30T20:59:34.897Z,96828.75
2023-03-30T21:02:03.683Z,96804.84
2023-03-30T21:04:30.557Z,96814.63
2023-03-30T21:06:57.535Z,96810.41
2023-03-30T21:09:24.380Z,96815.47
2023-03-30T21:11:51.071Z,96811.91
2023-03-30T21:14:18.163Z,96841.63
2023-03-30T21:16:44.984Z,96836.88
2023-03-30T21:19:12.356Z,96839.25
2023-03-30T21:21:39.179Z,96851.84
2023-03-30T21:24:06.666Z,96854.13
2023-03-30T21:26:33.350Z,96848.06
2023-03-30T21:29:00.570Z,96853.34
2023-03-30T21:31:27.453Z,96861.06
2023-03-30T21:33:54.334Z,96856.94
2023-03-30T21:36:21.133Z,96846.31
2023-03-30T21:38:47.934Z,96843.88
2023-03-30T21:41:19.494Z,96831.41
2023-03-30T21:43:47.687Z,96841.44
2023-03-30T21:46:20.583Z,96834.47
2023-03-30T21:48:51.143Z,96807.34
2023-03-30T21:51:22.137Z,96806.59
2023-03-30T21:53:51.283Z,96791.06
2023-03-30T21:56:20.125Z,96767.19
2023-03-30T21:58:46.844Z,96765.47
2023-03-30T22:01:13.954Z,96745.94
2023-03-30T22:03:42.442Z,96742.59
2023-03-30T22:06:11.547Z,96733.03
2023-03-30T22:08:38.974Z,96718.28
2023-03-30T22:11:12.961Z,96711.16
2023-03-30T22:13:39.883Z,96711.22
2023-03-30T22:16:18.905Z,96705.09
2023-03-30T22:18:46.522Z,96706.72
2023-03-30T22:21:17.578Z,96725.13
2023-03-30T22:23:44.937Z,96726.75
2023-03-30T22:26:12.753Z,96718.63
2023-03-30T22:28:39.788Z,96718.34
2023-03-30T22:31:11.359Z,96725.59
2023-03-30T22:33:38.807Z,96724.94
2023-03-30T22:36:07.754Z,96720.91
2023-03-30T22:38:34.619Z,96716.81
2023-03-30T22:41:06.393Z,96708.66
2023-03-30T22:43:33.893Z,96702.63
2023-03-30T22:46:01.467Z,96705.22
2023-03-30T22:48:28.297Z,96697.06
2023-03-30T22:50:54.965Z,96670.63
2023-03-30T22:53:21.583Z,96668.47
2023-03-30T22:55:48.375Z,96667.28
2023-03-30T22:58:15.890Z,96659.91
2023-03-30T23:00:42.667Z,96646.69
2023-03-30T23:03:09.807Z,96650.56
2023-03-30T23:05:37.329Z,96634.97
2023-03-30T23:08:04.267Z,96632.91
2023-03-30T23:10:34.011Z,96626.66
2023-03-30T23:13:00.834Z,96611.69
2023-03-30T23:15:29.428Z,96602.56
2023-03-30T23:17:56.214Z,96569.41
2023-03-30T23:20:23.062Z,96541.38
2023-03-30T23:22:49.892Z,96503.59
2023-03-30T23:25:16.813Z,96441.84
2023-03-30T23:27:43.519Z,96403.72
2023-03-30T23:30:10.824Z,96376.22
2023-03-30T23:32:37.734Z,96372.84
2023-03-30T23:35:04.674Z,96326.97
2023-03-30T23:37:32.714Z,96307.38
2023-03-30T23:40:01.779Z,96288.84
2023-03-30T23:42:29.212Z,96275.66
2023-03-30T23:44:56.211Z,96264.91
2023-03-30T23:47:23.374Z,96255.84
2023-03-30T23:49:50.052Z,96221.22
2023-03-30T23:52:16.825Z,96198.59
2023-03-30T23:54:43.815Z,96178.22
2023-03-30T23:57:10.536Z,96148.81
2023-03-30T23:59:37.582Z,96128.25
